sensor_id;sensor_type;location;lat;lon;timestamp;P1;durP1;ratioP1;P2;durP2;ratioP2
20283;SDS011;10301;50.832;4.080;2024-01-15T00:01:42;26.53;;;13.10;;
20283;SDS011;10301;50.832;4.080;2024-01-15T00:04:09;24.97;;;12.37;;
20283;SDS011;10301;50.832;4.080;2024-01-15T00:06:34;21.70;;;11.43;;
20283;SDS011;10301;50.832;4.080;2024-01-15T00:09:00;18.90;;;10.67;;
20283;SDS011;10301;50.832;4.080;2024-01-15T00:11:26;18.57;;;9.30;;
20283;SDS011;10301;50.832;4.080;2024-01-15T00:13:51;20.20;;;9.73;;
20283;SDS011;10301;50.832;4.080;2024-01-15T00:16:17;17.87;;;8.97;;
20283;SDS011;10301;50.832;4.080;2024-01-15T00:18:43;16.53;;;8.07;;
20283;SDS011;10301;50.832;4.080;2024-01-15T00:21:09;14.27;;;7.60;;
20283;SDS011;10301;50.832;4.080;2024-01-15T00:23:35;16.17;;;7.90;;
20283;SDS011;10301;50.832;4.080;2024-01-15T00:26:00;14.30;;;7.43;;
20283;SDS011;10301;50.832;4.080;2024-01-15T00:28:26;16.73;;;9.00;;
20283;SDS011;10301;50.832;4.080;2024-01-15T00:30:52;15.57;;;8.90;;
20283;SDS011;10301;50.832;4.080;2024-01-15T00:33:17;17.53;;;10.33;;
20283;SDS011;10301;50.832;4.080;2024-01-15T00:35:43;19.73;;;10.00;;
20283;SDS011;10301;50.832;4.080;2024-01-15T00:38:09;15.63;;;9.20;;
20283;SDS011;10301;50.832;4.080;2024-01-15T00:40:34;12.23;;;7.17;;
20283;SDS011;10301;50.832;4.080;2024-01-15T00:43:00;14.90;;;6.90;;
20283;SDS011;10301;50.832;4.080;2024-01-15T00:45:27;13.47;;;7.23;;
20283;SDS011;10301;50.832;4.080;2024-01-15T00:47:52;9.67;;;6.23;;
20283;SDS011;10301;50.832;4.080;2024-01-15T00:50:18;10.73;;;6.23;;
20283;SDS011;10301;50.832;4.080;2024-01-15T00:52:44;14.23;;;6.80;;
20283;SDS011;10301;50.832;4.080;2024-01-15T00:55:09;11.57;;;6.50;;
20283;SDS011;10301;50.832;4.080;2024-01-15T00:57:35;12.30;;;7.47;;
20283;SDS011;10301;50.832;4.080;2024-01-15T01:00:00;11.60;;;7.50;;
20283;SDS011;10301;50.832;4.080;2024-01-15T01:02:26;11.47;;;7.27;;
20283;SDS011;10301;50.832;4.080;2024-01-15T01:04:52;12.87;;;7.77;;
20283;SDS011;10301;50.832;4.080;2024-01-15T01:07:18;14.73;;;8.20;;
20283;SDS011;10301;50.832;4.080;2024-01-15T01:09:44;11.00;;;7.70;;
20283;SDS011;10301;50.832;4.080;2024-01-15T01:12:10;15.23;;;9.43;;
20283;SDS011;10301;50.832;4.080;2024-01-15T01:14:36;13.60;;;8.40;;
20283;SDS011;10301;50.832;4.080;2024-01-15T01:17:02;11.37;;;7.50;;
20283;SDS011;10301;50.832;4.080;2024-01-15T01:19:28;12.90;;;8.50;;
20283;SDS011;10301;50.832;4.080;2024-01-15T01:21:55;11.03;;;6.50;;
20283;SDS011;10301;50.832;4.080;2024-01-15T01:24:21;9.63;;;5.87;;
20283;SDS011;10301;50.832;4.080;2024-01-15T01:26:46;9.03;;;4.93;;
20283;SDS011;10301;50.832;4.080;2024-01-15T01:29:12;10.63;;;5.37;;
20283;SDS011;10301;50.832;4.080;2024-01-15T01:31:42;16.23;;;7.70;;
20283;SDS011;10301;50.832;4.080;2024-01-15T01:34:09;11.80;;;6.50;;
20283;SDS011;10301;50.832;4.080;2024-01-15T01:36:35;10.37;;;5.67;;
20283;SDS011;10301;50.832;4.080;2024-01-15T01:39:00;9.00;;;6.93;;
20283;SDS011;10301;50.832;4.080;2024-01-15T01:41:26;9.90;;;5.10;;
20283;SDS011;10301;50.832;4.080;2024-01-15T01:43:51;9.47;;;4.80;;
20283;SDS011;10301;50.832;4.080;2024-01-15T01:46:17;17.23;;;7.50;;
20283;SDS011;10301;50.832;4.080;2024-01-15T01:48:43;9.67;;;5.60;;
20283;SDS011;10301;50.832;4.080;2024-01-15T01:51:09;11.77;;;6.87;;
20283;SDS011;10301;50.832;4.080;2024-01-15T01:53:36;12.80;;;6.30;;
20283;SDS011;10301;50.832;4.080;2024-01-15T01:56:03;9.13;;;6.63;;
20283;SDS011;10301;50.832;4.080;2024-01-15T01:58:29;8.80;;;5.60;;
20283;SDS011;10301;50.832;4.080;2024-01-15T02:00:56;7.87;;;4.77;;
20283;SDS011;10301;50.832;4.080;2024-01-15T02:03:23;12.20;;;6.60;;
20283;SDS011;10301;50.832;4.080;2024-01-15T02:05:50;10.83;;;5.77;;
20283;SDS011;10301;50.832;4.080;2024-01-15T02:08:16;9.57;;;5.93;;
20283;SDS011;10301;50.832;4.080;2024-01-15T02:10:42;13.00;;;6.23;;
20283;SDS011;10301;50.832;4.080;2024-01-15T02:13:08;10.83;;;6.77;;
20283;SDS011;10301;50.832;4.080;2024-01-15T02:15:33;11.60;;;6.40;;
20283;SDS011;10301;50.832;4.080;2024-01-15T02:18:03;8.57;;;4.90;;
20283;SDS011;10301;50.832;4.080;2024-01-15T02:20:30;11.47;;;5.17;;
20283;SDS011;10301;50.832;4.080;2024-01-15T02:23:09;9.00;;;5.33;;
20283;SDS011;10301;50.832;4.080;2024-01-15T02:25:37;10.83;;;6.77;;
20283;SDS011;10301;50.832;4.080;2024-01-15T02:28:05;14.57;;;7.67;;
20283;SDS011;10301;50.832;4.080;2024-01-15T02:30:32;12.70;;;7.07;;
20283;SDS011;10301;50.832;4.080;2024-01-15T02:33:04;20.80;;;9.03;;
20283;SDS011;10301;50.832;4.080;2024-01-15T02:35:30;13.73;;;7.77;;
20283;SDS011;10301;50.832;4.080;2024-01-15T02:37:56;18.87;;;8.60;;
20283;SDS011;10301;50.832;4.080;2024-01-15T02:40:21;13.93;;;8.27;;
20283;SDS011;10301;50.832;4.080;2024-01-15T02:42:47;17.93;;;8.70;;
20283;SDS011;10301;50.832;4.080;2024-01-15T02:45:13;18.33;;;9.40;;
20283;SDS011;10301;50.832;4.080;2024-01-15T02:47:39;15.67;;;8.50;;
20283;SDS011;10301;50.832;4.080;2024-01-15T02:50:04;16.80;;;9.27;;
20283;SDS011;10301;50.832;4.080;2024-01-15T02:52:31;16.17;;;8.50;;
20283;SDS011;10301;50.832;4.080;2024-01-15T02:54:56;17.40;;;10.53;;
20283;SDS011;10301;50.832;4.080;2024-01-15T02:57:22;14.73;;;8.30;;
20283;SDS011;10301;50.832;4.080;2024-01-15T02:59:47;18.17;;;9.47;;
20283;SDS011;10301;50.832;4.080;2024-01-15T03:02:13;13.90;;;8.57;;
20283;SDS011;10301;50.832;4.080;2024-01-15T03:04:42;16.03;;;8.30;;
20283;SDS011;10301;50.832;4.080;2024-01-15T03:07:08;15.30;;;7.70;;
20283;SDS011;10301;50.832;4.080;2024-01-15T03:09:34;13.63;;;7.57;;
20283;SDS011;10301;50.832;4.080;2024-01-15T03:12:00;18.50;;;9.00;;
20283;SDS011;10301;50.832;4.080;2024-01-15T03:14:25;15.33;;;9.13;;
20283;SDS011;10301;50.832;4.080;2024-01-15T03:16:51;19.67;;;9.13;;
20283;SDS011;10301;50.832;4.080;2024-01-15T03:19:17;15.03;;;9.47;;
20283;SDS011;10301;50.832;4.080;2024-01-15T03:21:43;16.87;;;9.00;;
20283;SDS011;10301;50.832;4.080;2024-01-15T03:24:08;18.30;;;10.53;;
20283;SDS011;10301;50.832;4.080;2024-01-15T03:26:34;18.53;;;10.10;;
20283;SDS011;10301;50.832;4.080;2024-01-15T03:28:59;19.97;;;10.50;;
20283;SDS011;10301;50.832;4.080;2024-01-15T03:31:25;23.73;;;11.57;;
20283;SDS011;10301;50.832;4.080;2024-01-15T03:33:51;19.43;;;10.83;;
20283;SDS011;10301;50.832;4.080;2024-01-15T03:36:17;24.20;;;11.37;;
20283;SDS011;10301;50.832;4.080;2024-01-15T03:38:42;26.33;;;11.83;;
20283;SDS011;10301;50.832;4.080;2024-01-15T03:41:08;21.37;;;12.10;;
20283;SDS011;10301;50.832;4.080;2024-01-15T03:43:34;29.43;;;12.57;;
20283;SDS011;10301;50.832;4.080;2024-01-15T03:45:59;25.73;;;13.07;;
20283;SDS011;10301;50.832;4.080;2024-01-15T03:48:25;27.30;;;14.17;;
20283;SDS011;10301;50.832;4.080;2024-01-15T03:50:51;28.77;;;14.20;;
20283;SDS011;10301;50.832;4.080;2024-01-15T03:53:16;25.63;;;14.03;;
20283;SDS011;10301;50.832;4.080;2024-01-15T03:55:42;26.97;;;14.63;;
20283;SDS011;10301;50.832;4.080;2024-01-15T03:58:07;29.30;;;13.90;;
20283;SDS011;10301;50.832;4.080;2024-01-15T04:00:33;25.53;;;13.33;;
20283;SDS011;10301;50.832;4.080;2024-01-15T04:02:59;26.07;;;13.87;;
20283;SDS011;10301;50.832;4.080;2024-01-15T04:05:25;32.07;;;14.47;;
20283;SDS011;10301;50.832;4.080;2024-01-15T04:07:51;25.63;;;13.77;;
20283;SDS011;10301;50.832;4.080;2024-01-15T04:10:16;22.37;;;13.20;;
20283;SDS011;10301;50.832;4.080;2024-01-15T04:12:42;27.10;;;12.53;;
20283;SDS011;10301;50.832;4.080;2024-01-15T04:15:08;22.73;;;9.87;;
20283;SDS011;10301;50.832;4.080;2024-01-15T04:17:33;15.63;;;7.43;;
20283;SDS011;10301;50.832;4.080;2024-01-15T04:19:59;15.00;;;6.30;;
20283;SDS011;10301;50.832;4.080;2024-01-15T04:22:26;17.20;;;6.80;;
20283;SDS011;10301;50.832;4.080;2024-01-15T04:24:52;9.63;;;4.43;;
20283;SDS011;10301;50.832;4.080;2024-01-15T04:27:17;11.23;;;5.07;;
20283;SDS011;10301;50.832;4.080;2024-01-15T04:29:43;9.70;;;5.30;;
20283;SDS011;10301;50.832;4.080;2024-01-15T04:32:09;11.80;;;5.20;;
20283;SDS011;10301;50.832;4.080;2024-01-15T04:34:35;12.20;;;6.37;;
20283;SDS011;10301;50.832;4.080;2024-01-15T04:37:01;10.70;;;6.07;;
20283;SDS011;10301;50.832;4.080;2024-01-15T04:39:27;9.43;;;4.53;;
20283;SDS011;10301;50.832;4.080;2024-01-15T04:41:52;10.97;;;4.63;;
20283;SDS011;10301;50.832;4.080;2024-01-15T04:44:18;12.50;;;5.10;;
20283;SDS011;10301;50.832;4.080;2024-01-15T04:46:44;20.00;;;6.73;;
20283;SDS011;10301;50.832;4.080;2024-01-15T04:49:10;10.10;;;4.23;;
20283;SDS011;10301;50.832;4.080;2024-01-15T04:51:36;9.10;;;4.50;;
20283;SDS011;10301;50.832;4.080;2024-01-15T04:54:01;9.37;;;3.60;;
20283;SDS011;10301;50.832;4.080;2024-01-15T04:56:27;8.40;;;3.43;;
20283;SDS011;10301;50.832;4.080;2024-01-15T04:58:53;10.77;;;4.10;;
20283;SDS011;10301;50.832;4.080;2024-01-15T05:01:18;6.83;;;3.30;;
20283;SDS011;10301;50.832;4.080;2024-01-15T05:03:44;9.70;;;3.77;;
20283;SDS011;10301;50.832;4.080;2024-01-15T05:06:10;7.87;;;3.70;;
20283;SDS011;10301;50.832;4.080;2024-01-15T05:08:35;12.13;;;4.70;;
20283;SDS011;10301;50.832;4.080;2024-01-15T05:11:01;10.57;;;3.53;;
20283;SDS011;10301;50.832;4.080;2024-01-15T05:13:27;6.77;;;3.77;;
20283;SDS011;10301;50.832;4.080;2024-01-15T05:15:53;6.00;;;2.87;;
20283;SDS011;10301;50.832;4.080;2024-01-15T05:18:18;15.00;;;2.50;;
20283;SDS011;10301;50.832;4.080;2024-01-15T05:20:44;13.53;;;2.93;;
20283;SDS011;10301;50.832;4.080;2024-01-15T05:23:10;16.17;;;4.63;;
20283;SDS011;10301;50.832;4.080;2024-01-15T05:25:35;13.90;;;4.17;;
20283;SDS011;10301;50.832;4.080;2024-01-15T05:28:01;9.90;;;3.30;;
20283;SDS011;10301;50.832;4.080;2024-01-15T05:30:27;10.00;;;2.80;;
20283;SDS011;10301;50.832;4.080;2024-01-15T05:32:53;6.80;;;2.60;;
20283;SDS011;10301;50.832;4.080;2024-01-15T05:35:19;12.40;;;2.17;;
20283;SDS011;10301;50.832;4.080;2024-01-15T05:37:45;8.40;;;2.80;;
20283;SDS011;10301;50.832;4.080;2024-01-15T05:40:11;20.20;;;5.30;;
20283;SDS011;10301;50.832;4.080;2024-01-15T05:42:38;10.43;;;4.03;;
20283;SDS011;10301;50.832;4.080;2024-01-15T05:45:04;11.13;;;3.83;;
20283;SDS011;10301;50.832;4.080;2024-01-15T05:47:30;8.97;;;2.43;;
20283;SDS011;10301;50.832;4.080;2024-01-15T05:49:56;16.53;;;3.20;;
20283;SDS011;10301;50.832;4.080;2024-01-15T05:52:23;7.77;;;2.57;;
20283;SDS011;10301;50.832;4.080;2024-01-15T05:54:49;8.67;;;2.90;;
20283;SDS011;10301;50.832;4.080;2024-01-15T05:57:15;7.63;;;2.60;;
20283;SDS011;10301;50.832;4.080;2024-01-15T05:59:41;8.83;;;3.40;;
20283;SDS011;10301;50.832;4.080;2024-01-15T06:02:07;15.17;;;4.10;;
20283;SDS011;10301;50.832;4.080;2024-01-15T06:04:33;9.47;;;3.53;;
20283;SDS011;10301;50.832;4.080;2024-01-15T06:06:59;8.00;;;2.87;;
20283;SDS011;10301;50.832;4.080;2024-01-15T06:09:24;12.50;;;3.33;;
20283;SDS011;10301;50.832;4.080;2024-01-15T06:11:50;13.43;;;2.97;;
20283;SDS011;10301;50.832;4.080;2024-01-15T06:14:16;10.87;;;3.80;;
20283;SDS011;10301;50.832;4.080;2024-01-15T06:16:41;6.50;;;3.60;;
20283;SDS011;10301;50.832;4.080;2024-01-15T06:19:07;11.67;;;4.87;;
20283;SDS011;10301;50.832;4.080;2024-01-15T06:21:33;11.20;;;2.83;;
20283;SDS011;10301;50.832;4.080;2024-01-15T06:23:58;6.13;;;3.57;;
20283;SDS011;10301;50.832;4.080;2024-01-15T06:26:24;14.17;;;3.47;;
20283;SDS011;10301;50.832;4.080;2024-01-15T06:28:50;6.93;;;3.73;;
20283;SDS011;10301;50.832;4.080;2024-01-15T06:31:15;5.43;;;2.90;;
20283;SDS011;10301;50.832;4.080;2024-01-15T06:33:41;12.93;;;3.90;;
20283;SDS011;10301;50.832;4.080;2024-01-15T06:36:07;10.73;;;3.30;;
20283;SDS011;10301;50.832;4.080;2024-01-15T06:38:32;11.57;;;3.13;;
20283;SDS011;10301;50.832;4.080;2024-01-15T06:40:58;7.70;;;2.43;;
20283;SDS011;10301;50.832;4.080;2024-01-15T06:43:24;6.40;;;4.23;;
20283;SDS011;10301;50.832;4.080;2024-01-15T06:45:49;10.40;;;4.27;;
20283;SDS011;10301;50.832;4.080;2024-01-15T06:48:15;12.93;;;4.00;;
20283;SDS011;10301;50.832;4.080;2024-01-15T06:50:44;8.70;;;3.87;;
20283;SDS011;10301;50.832;4.080;2024-01-15T06:53:10;14.10;;;4.60;;
20283;SDS011;10301;50.832;4.080;2024-01-15T06:55:36;9.43;;;4.93;;
20283;SDS011;10301;50.832;4.080;2024-01-15T06:58:02;9.90;;;5.33;;
20283;SDS011;10301;50.832;4.080;2024-01-15T07:00:28;10.87;;;5.60;;
20283;SDS011;10301;50.832;4.080;2024-01-15T07:02:54;14.17;;;6.80;;
20283;SDS011;10301;50.832;4.080;2024-01-15T07:05:20;13.43;;;7.00;;
20283;SDS011;10301;50.832;4.080;2024-01-15T07:07:46;15.97;;;12.43;;
20283;SDS011;10301;50.832;4.080;2024-01-15T07:10:12;12.43;;;6.90;;
20283;SDS011;10301;50.832;4.080;2024-01-15T07:12:38;15.07;;;8.27;;
20283;SDS011;10301;50.832;4.080;2024-01-15T07:15:04;16.03;;;8.63;;
20283;SDS011;10301;50.832;4.080;2024-01-15T07:17:32;15.27;;;8.73;;
20283;SDS011;10301;50.832;4.080;2024-01-15T07:19:58;14.20;;;7.17;;
20283;SDS011;10301;50.832;4.080;2024-01-15T07:22:24;16.83;;;7.93;;
20283;SDS011;10301;50.832;4.080;2024-01-15T07:24:50;11.63;;;7.83;;
20283;SDS011;10301;50.832;4.080;2024-01-15T07:27:15;14.23;;;7.03;;
20283;SDS011;10301;50.832;4.080;2024-01-15T07:29:41;17.53;;;7.13;;
20283;SDS011;10301;50.832;4.080;2024-01-15T07:32:08;15.83;;;8.17;;
20283;SDS011;10301;50.832;4.080;2024-01-15T07:34:34;15.53;;;6.87;;
20283;SDS011;10301;50.832;4.080;2024-01-15T07:36:59;16.20;;;7.87;;
20283;SDS011;10301;50.832;4.080;2024-01-15T07:39:25;15.40;;;6.77;;
20283;SDS011;10301;50.832;4.080;2024-01-15T07:41:51;17.93;;;8.43;;
20283;SDS011;10301;50.832;4.080;2024-01-15T07:44:17;16.67;;;8.10;;
20283;SDS011;10301;50.832;4.080;2024-01-15T07:46:46;16.00;;;7.23;;
20283;SDS011;10301;50.832;4.080;2024-01-15T07:49:12;13.63;;;7.23;;
20283;SDS011;10301;50.832;4.080;2024-01-15T07:51:38;18.93;;;8.67;;
20283;SDS011;10301;50.832;4.080;2024-01-15T07:54:05;16.60;;;7.77;;
20283;SDS011;10301;50.832;4.080;2024-01-15T07:56:31;12.10;;;8.17;;
20283;SDS011;10301;50.832;4.080;2024-01-15T07:58:57;13.97;;;6.50;;
20283;SDS011;10301;50.832;4.080;2024-01-15T08:01:23;12.67;;;4.70;;
20283;SDS011;10301;50.832;4.080;2024-01-15T08:03:49;17.50;;;6.00;;
20283;SDS011;10301;50.832;4.080;2024-01-15T08:06:14;12.43;;;5.73;;
20283;SDS011;10301;50.832;4.080;2024-01-15T08:08:40;14.23;;;4.73;;
20283;SDS011;10301;50.832;4.080;2024-01-15T08:11:06;14.20;;;4.53;;
20283;SDS011;10301;50.832;4.080;2024-01-15T08:13:32;10.80;;;4.27;;
20283;SDS011;10301;50.832;4.080;2024-01-15T08:15:57;9.77;;;4.00;;
20283;SDS011;10301;50.832;4.080;2024-01-15T08:18:23;15.23;;;3.77;;
20283;SDS011;10301;50.832;4.080;2024-01-15T08:20:49;12.00;;;3.67;;
20283;SDS011;10301;50.832;4.080;2024-01-15T08:23:16;9.40;;;3.13;;
20283;SDS011;10301;50.832;4.080;2024-01-15T08:25:42;10.00;;;3.30;;
20283;SDS011;10301;50.832;4.080;2024-01-15T08:28:07;12.80;;;2.73;;
20283;SDS011;10301;50.832;4.080;2024-01-15T08:30:33;11.97;;;3.47;;
20283;SDS011;10301;50.832;4.080;2024-01-15T08:32:59;8.97;;;2.90;;
20283;SDS011;10301;50.832;4.080;2024-01-15T08:35:25;10.63;;;2.87;;
20283;SDS011;10301;50.832;4.080;2024-01-15T08:37:51;11.03;;;2.60;;
20283;SDS011;10301;50.832;4.080;2024-01-15T08:40:18;8.80;;;2.73;;
20283;SDS011;10301;50.832;4.080;2024-01-15T08:42:44;11.87;;;3.20;;
20283;SDS011;10301;50.832;4.080;2024-01-15T08:45:13;10.47;;;2.50;;
20283;SDS011;10301;50.832;4.080;2024-01-15T08:47:39;8.43;;;3.10;;
20283;SDS011;10301;50.832;4.080;2024-01-15T08:50:05;7.80;;;3.00;;
20283;SDS011;10301;50.832;4.080;2024-01-15T08:52:31;10.07;;;2.50;;
20283;SDS011;10301;50.832;4.080;2024-01-15T08:54:56;14.13;;;3.77;;
20283;SDS011;10301;50.832;4.080;2024-01-15T08:57:22;10.87;;;3.00;;
20283;SDS011;10301;50.832;4.080;2024-01-15T08:59:48;9.63;;;2.37;;
20283;SDS011;10301;50.832;4.080;2024-01-15T09:02:14;9.43;;;3.43;;
20283;SDS011;10301;50.832;4.080;2024-01-15T09:04:40;8.50;;;2.83;;
20283;SDS011;10301;50.832;4.080;2024-01-15T09:07:06;9.87;;;3.20;;
20283;SDS011;10301;50.832;4.080;2024-01-15T09:09:32;7.13;;;2.30;;
20283;SDS011;10301;50.832;4.080;2024-01-15T09:11:59;7.53;;;2.23;;
20283;SDS011;10301;50.832;4.080;2024-01-15T09:14:25;11.53;;;2.70;;
20283;SDS011;10301;50.832;4.080;2024-01-15T09:16:52;13.57;;;2.73;;
20283;SDS011;10301;50.832;4.080;2024-01-15T09:19:18;11.30;;;2.93;;
20283;SDS011;10301;50.832;4.080;2024-01-15T09:21:44;11.93;;;2.80;;
20283;SDS011;10301;50.832;4.080;2024-01-15T09:24:09;13.83;;;3.63;;
20283;SDS011;10301;50.832;4.080;2024-01-15T09:26:35;9.47;;;2.40;;
20283;SDS011;10301;50.832;4.080;2024-01-15T09:29:01;6.93;;;2.37;;
20283;SDS011;10301;50.832;4.080;2024-01-15T09:31:27;4.80;;;2.00;;
20283;SDS011;10301;50.832;4.080;2024-01-15T09:33:53;8.53;;;3.27;;
20283;SDS011;10301;50.832;4.080;2024-01-15T09:36:21;7.00;;;2.57;;
20283;SDS011;10301;50.832;4.080;2024-01-15T09:38:47;11.50;;;2.80;;
20283;SDS011;10301;50.832;4.080;2024-01-15T09:41:13;15.13;;;3.07;;
20283;SDS011;10301;50.832;4.080;2024-01-15T09:43:40;13.37;;;4.07;;
20283;SDS011;10301;50.832;4.080;2024-01-15T09:46:06;11.20;;;3.00;;
20283;SDS011;10301;50.832;4.080;2024-01-15T09:48:31;9.87;;;2.60;;
20283;SDS011;10301;50.832;4.080;2024-01-15T09:50:59;9.53;;;2.30;;
20283;SDS011;10301;50.832;4.080;2024-01-15T09:53:26;14.23;;;2.77;;
20283;SDS011;10301;50.832;4.080;2024-01-15T09:55:52;7.20;;;2.53;;
20283;SDS011;10301;50.832;4.080;2024-01-15T09:58:18;11.00;;;2.90;;
20283;SDS011;10301;50.832;4.080;2024-01-15T10:00:44;8.67;;;2.50;;
20283;SDS011;10301;50.832;4.080;2024-01-15T10:03:12;8.77;;;3.07;;
20283;SDS011;10301;50.832;4.080;2024-01-15T10:05:38;9.37;;;2.60;;
20283;SDS011;10301;50.832;4.080;2024-01-15T10:08:04;9.33;;;2.27;;
20283;SDS011;10301;50.832;4.080;2024-01-15T10:10:31;10.57;;;4.63;;
20283;SDS011;10301;50.832;4.080;2024-01-15T10:12:57;23.97;;;6.77;;
20283;SDS011;10301;50.832;4.080;2024-01-15T10:15:27;13.90;;;4.37;;
20283;SDS011;10301;50.832;4.080;2024-01-15T10:17:53;10.30;;;2.97;;
20283;SDS011;10301;50.832;4.080;2024-01-15T10:20:18;9.83;;;2.30;;
20283;SDS011;10301;50.832;4.080;2024-01-15T10:22:47;9.87;;;2.20;;
20283;SDS011;10301;50.832;4.080;2024-01-15T10:25:13;6.47;;;2.27;;
20283;SDS011;10301;50.832;4.080;2024-01-15T10:27:42;10.10;;;2.40;;
20283;SDS011;10301;50.832;4.080;2024-01-15T10:30:11;9.13;;;2.20;;
20283;SDS011;10301;50.832;4.080;2024-01-15T10:32:39;6.07;;;2.10;;
20283;SDS011;10301;50.832;4.080;2024-01-15T10:35:06;5.60;;;1.90;;
20283;SDS011;10301;50.832;4.080;2024-01-15T10:37:33;12.70;;;3.30;;
20283;SDS011;10301;50.832;4.080;2024-01-15T10:40:01;15.10;;;2.57;;
20283;SDS011;10301;50.832;4.080;2024-01-15T10:42:30;8.73;;;2.60;;
20283;SDS011;10301;50.832;4.080;2024-01-15T10:44:55;11.20;;;2.60;;
20283;SDS011;10301;50.832;4.080;2024-01-15T10:47:21;7.47;;;2.60;;
20283;SDS011;10301;50.832;4.080;2024-01-15T10:49:48;7.60;;;1.80;;
20283;SDS011;10301;50.832;4.080;2024-01-15T10:52:15;6.53;;;2.00;;
20283;SDS011;10301;50.832;4.080;2024-01-15T10:54:41;8.40;;;2.40;;
20283;SDS011;10301;50.832;4.080;2024-01-15T10:57:07;7.97;;;2.10;;
20283;SDS011;10301;50.832;4.080;2024-01-15T10:59:34;6.93;;;2.23;;
20283;SDS011;10301;50.832;4.080;2024-01-15T11:02:01;8.30;;;2.03;;
20283;SDS011;10301;50.832;4.080;2024-01-15T11:04:27;8.10;;;2.07;;
20283;SDS011;10301;50.832;4.080;2024-01-15T11:06:53;7.30;;;2.60;;
20283;SDS011;10301;50.832;4.080;2024-01-15T11:09:20;8.50;;;2.13;;
20283;SDS011;10301;50.832;4.080;2024-01-15T11:11:47;10.73;;;2.13;;
20283;SDS011;10301;50.832;4.080;2024-01-15T11:17:22;6.13;;;1.87;;
20283;SDS011;10301;50.832;4.080;2024-01-15T11:19:48;7.20;;;1.90;;
20283;SDS011;10301;50.832;4.080;2024-01-15T11:25:02;11.67;;;2.40;;
20283;SDS011;10301;50.832;4.080;2024-01-15T11:27:41;8.40;;;2.10;;
20283;SDS011;10301;50.832;4.080;2024-01-15T11:30:08;7.77;;;2.40;;
20283;SDS011;10301;50.832;4.080;2024-01-15T11:32:35;9.60;;;2.50;;
20283;SDS011;10301;50.832;4.080;2024-01-15T11:35:02;10.37;;;2.30;;
20283;SDS011;10301;50.832;4.080;2024-01-15T11:37:29;12.83;;;3.07;;
20283;SDS011;10301;50.832;4.080;2024-01-15T11:40:17;7.10;;;2.40;;
20283;SDS011;10301;50.832;4.080;2024-01-15T11:42:47;10.23;;;3.33;;
20283;SDS011;10301;50.832;4.080;2024-01-15T11:45:16;8.60;;;2.30;;
20283;SDS011;10301;50.832;4.080;2024-01-15T11:48:27;11.77;;;3.60;;
20283;SDS011;10301;50.832;4.080;2024-01-15T11:50:41;10.87;;;2.80;;
20283;SDS011;10301;50.832;4.080;2024-01-15T11:55:48;11.37;;;2.90;;
20283;SDS011;10301;50.832;4.080;2024-01-15T11:58:17;10.53;;;2.83;;
20283;SDS011;10301;50.832;4.080;2024-01-15T12:00:44;5.33;;;2.53;;
20283;SDS011;10301;50.832;4.080;2024-01-15T12:03:12;7.63;;;3.47;;
20283;SDS011;10301;50.832;4.080;2024-01-15T12:05:38;13.03;;;4.53;;
20283;SDS011;10301;50.832;4.080;2024-01-15T12:08:04;8.53;;;2.20;;
20283;SDS011;10301;50.832;4.080;2024-01-15T12:10:36;6.07;;;2.00;;
20283;SDS011;10301;50.832;4.080;2024-01-15T12:15:31;9.83;;;1.80;;
20283;SDS011;10301;50.832;4.080;2024-01-15T12:17:58;6.87;;;2.50;;
20283;SDS011;10301;50.832;4.080;2024-01-15T12:20:26;7.97;;;2.00;;
20283;SDS011;10301;50.832;4.080;2024-01-15T12:22:52;6.77;;;1.93;;
20283;SDS011;10301;50.832;4.080;2024-01-15T12:25:18;8.87;;;2.10;;
20283;SDS011;10301;50.832;4.080;2024-01-15T12:27:44;8.30;;;2.00;;
20283;SDS011;10301;50.832;4.080;2024-01-15T12:30:11;10.67;;;1.53;;
20283;SDS011;10301;50.832;4.080;2024-01-15T12:32:39;6.33;;;2.00;;
20283;SDS011;10301;50.832;4.080;2024-01-15T12:35:06;4.47;;;2.00;;
20283;SDS011;10301;50.832;4.080;2024-01-15T12:37:34;11.43;;;1.70;;
20283;SDS011;10301;50.832;4.080;2024-01-15T12:40:11;6.10;;;1.77;;
20283;SDS011;10301;50.832;4.080;2024-01-15T12:42:39;5.00;;;1.20;;
20283;SDS011;10301;50.832;4.080;2024-01-15T12:45:05;8.63;;;1.87;;
20283;SDS011;10301;50.832;4.080;2024-01-15T12:47:32;9.20;;;2.10;;
20283;SDS011;10301;50.832;4.080;2024-01-15T12:49:57;9.27;;;1.93;;
20283;SDS011;10301;50.832;4.080;2024-01-15T12:52:26;7.27;;;2.50;;
20283;SDS011;10301;50.832;4.080;2024-01-15T12:54:52;12.40;;;2.40;;
20283;SDS011;10301;50.832;4.080;2024-01-15T12:57:18;6.33;;;2.33;;
20283;SDS011;10301;50.832;4.080;2024-01-15T12:59:44;5.87;;;1.60;;
20283;SDS011;10301;50.832;4.080;2024-01-15T13:02:13;5.63;;;1.53;;
20283;SDS011;10301;50.832;4.080;2024-01-15T13:04:39;7.33;;;1.80;;
20283;SDS011;10301;50.832;4.080;2024-01-15T13:07:05;7.03;;;3.50;;
20283;SDS011;10301;50.832;4.080;2024-01-15T13:09:32;7.17;;;2.20;;
20283;SDS011;10301;50.832;4.080;2024-01-15T13:12:04;8.00;;;1.80;;
20283;SDS011;10301;50.832;4.080;2024-01-15T13:14:30;6.17;;;1.70;;
20283;SDS011;10301;50.832;4.080;2024-01-15T13:16:56;8.00;;;1.83;;
20283;SDS011;10301;50.832;4.080;2024-01-15T13:19:23;6.57;;;2.37;;
20283;SDS011;10301;50.832;4.080;2024-01-15T13:21:49;13.83;;;2.73;;
20283;SDS011;10301;50.832;4.080;2024-01-15T13:24:18;9.83;;;2.70;;
20283;SDS011;10301;50.832;4.080;2024-01-15T13:26:44;12.50;;;2.73;;
20283;SDS011;10301;50.832;4.080;2024-01-15T13:29:10;8.80;;;2.13;;
20283;SDS011;10301;50.832;4.080;2024-01-15T13:31:36;4.83;;;1.47;;
20283;SDS011;10301;50.832;4.080;2024-01-15T13:34:01;9.40;;;1.87;;
20283;SDS011;10301;50.832;4.080;2024-01-15T13:36:28;9.57;;;2.33;;
20283;SDS011;10301;50.832;4.080;2024-01-15T13:38:54;6.97;;;2.47;;
20283;SDS011;10301;50.832;4.080;2024-01-15T13:41:20;8.07;;;2.30;;
20283;SDS011;10301;50.832;4.080;2024-01-15T13:43:52;7.77;;;2.17;;
20283;SDS011;10301;50.832;4.080;2024-01-15T13:46:20;8.37;;;2.20;;
20283;SDS011;10301;50.832;4.080;2024-01-15T13:48:48;9.93;;;2.03;;
20283;SDS011;10301;50.832;4.080;2024-01-15T13:51:13;8.47;;;2.60;;
20283;SDS011;10301;50.832;4.080;2024-01-15T13:53:39;8.43;;;2.73;;
20283;SDS011;10301;50.832;4.080;2024-01-15T13:56:06;8.53;;;2.23;;
20283;SDS011;10301;50.832;4.080;2024-01-15T13:58:32;12.00;;;2.37;;
20283;SDS011;10301;50.832;4.080;2024-01-15T14:00:58;8.37;;;2.13;;
20283;SDS011;10301;50.832;4.080;2024-01-15T14:03:24;10.80;;;2.30;;
20283;SDS011;10301;50.832;4.080;2024-01-15T14:05:51;11.40;;;3.07;;
20283;SDS011;10301;50.832;4.080;2024-01-15T14:08:17;11.17;;;2.80;;
20283;SDS011;10301;50.832;4.080;2024-01-15T14:10:43;10.23;;;2.40;;
20283;SDS011;10301;50.832;4.080;2024-01-15T14:13:08;8.07;;;2.23;;
20283;SDS011;10301;50.832;4.080;2024-01-15T14:15:34;9.03;;;2.20;;
20283;SDS011;10301;50.832;4.080;2024-01-15T14:18:00;15.03;;;3.70;;
20283;SDS011;10301;50.832;4.080;2024-01-15T14:20:26;8.57;;;2.33;;
20283;SDS011;10301;50.832;4.080;2024-01-15T14:22:52;10.67;;;2.57;;
20283;SDS011;10301;50.832;4.080;2024-01-15T14:25:19;11.90;;;3.53;;
20283;SDS011;10301;50.832;4.080;2024-01-15T14:27:45;11.93;;;2.33;;
20283;SDS011;10301;50.832;4.080;2024-01-15T14:30:11;6.70;;;1.90;;
20283;SDS011;10301;50.832;4.080;2024-01-15T14:32:38;9.80;;;2.80;;
20283;SDS011;10301;50.832;4.080;2024-01-15T14:35:04;4.20;;;1.80;;
20283;SDS011;10301;50.832;4.080;2024-01-15T14:37:31;10.37;;;2.50;;
20283;SDS011;10301;50.832;4.080;2024-01-15T14:39:56;9.30;;;2.43;;
20283;SDS011;10301;50.832;4.080;2024-01-15T14:42:22;13.53;;;2.77;;
20283;SDS011;10301;50.832;4.080;2024-01-15T14:44:49;7.67;;;2.10;;